Temp: 3.2°C   Baro: 1032.1mb
  Wind: 0.0mph   Dir: WNW (296°)
  Rain: 0.0mm (0.0mm/hr)
  Solar: 9W/m2  Hum: 91%
 
Bath Spa Weather Station Historical Data
Daily Summary for April 08, 2021 Units:  English    Metric   Both
Daily Weekly Monthly Yearly Custom
  High: Low: Average:
Temperature: 51.2 °F 36 °F 44.1 °F
Dew Point: 43.5 °F 30.9 °F 38.5 °F
Humidity: 82.4% 68% 78%
Wind Speed: 10.6mph 0mph 4.2mph
Wind Gust: 18mph - -
Wind- - West
Pressure: 30.28 in 30.01 in -
Precipitation: 0.00 in    
Historical Graphs
 
 
Tabular Data for April 08, 2021
Time Temperature Dew Point Pressure Wind Wind Speed Wind Gust Humidity Rainfall Rate (Hourly) solar
00:03 36 °F 30.9 °F 30.28 in NNW 1.2 mph 2 mph 79% 0.00 in 0 W/m2
00:09 36 °F 30.9 °F 30.28 in Calm   1 mph 79% 0.00 in 0 W/m2
00:14 36 °F 30.9 °F 30.28 in Calm     79% 0.00 in 0 W/m2
00:19 36 °F 31 °F 30.28 in Calm     79% 0.00 in 0 W/m2
00:24 36.1 °F 31.1 °F 30.28 in Calm     79% 0.00 in 0 W/m2
00:29 36.1 °F 31.1 °F 30.28 in Calm     79% 0.00 in 0 W/m2
00:34 36.1 °F 31.1 °F 30.28 in Calm     79% 0.00 in 0 W/m2
00:39 36.3 °F 31.3 °F 30.28 in Calm     79% 0.00 in 0 W/m2
00:44 36.3 °F 31.3 °F 30.28 in Calm     79% 0.00 in 0 W/m2
00:49 36.4 °F 31.5 °F 30.28 in Calm     79.2% 0.00 in 0 W/m2
00:54 36.5 °F 31.5 °F 30.28 in Calm     79% 0.00 in 0 W/m2
00:59 36.5 °F 31.5 °F 30.27 in Calm     79.2% 0.00 in 0 W/m2
01:04 36.7 °F 31.8 °F 30.28 in Calm     79.4% 0.00 in 0 W/m2
01:09 36.7 °F 31.7 °F 30.28 in NNW 1.6 mph 4 mph 79.2% 0.00 in 0 W/m2
01:14 36.7 °F 31.7 °F 30.28 in NNW 1 mph 3 mph 79.3% 0.00 in 0 W/m2
01:19 36.7 °F 31.7 °F 30.28 in NNW 0.9 mph 2 mph 79.2% 0.00 in 0 W/m2
01:24 36.7 °F 31.6 °F 30.28 in Calm   2 mph 79% 0.00 in 0 W/m2
01:29 36.7 °F 31.6 °F 30.28 in NNW 0.8 mph 2 mph 79% 0.00 in 0 W/m2
01:34 36.7 °F 32 °F 30.27 in Calm   1 mph 80% 0.00 in 0 W/m2
01:39 36.9 °F 32.2 °F 30.27 in Calm     80% 0.00 in 0 W/m2
01:44 36.9 °F 32.3 °F 30.27 in Calm   1 mph 80% 0.00 in 0 W/m2
01:59 37.2 °F 32.5 °F 30.27 in Calm     80% 0.00 in 0 W/m2
02:04 37.2 °F 32.5 °F 30.27 in Calm     80% 0.00 in 0 W/m2
02:09 37.2 °F 32.5 °F 30.27 in NNW 0.2 mph 1 mph 80% 0.00 in 0 W/m2
02:14 37.3 °F 32.6 °F 30.27 in NNW 2 mph 3 mph 80% 0.00 in 0 W/m2
02:19 37.2 °F 32.5 °F 30.27 in NNW 2 mph 3 mph 80% 0.00 in 0 W/m2
02:24 37.2 °F 32.5 °F 30.26 in NNW 0.8 mph 3 mph 80% 0.00 in 0 W/m2
02:29 37.2 °F 32.5 °F 30.26 in NNW 1 mph 3 mph 80% 0.00 in 0 W/m2
02:34 37.3 °F 32.6 °F 30.26 in NNW 2.2 mph 3 mph 80% 0.00 in 0 W/m2
02:39 37.4 °F 32.7 °F 30.26 in NNW 1.3 mph 3 mph 80% 0.00 in 0 W/m2
02:44 37.4 °F 32.6 °F 30.26 in Calm   2 mph 79.6% 0.00 in 0 W/m2
02:49 37.4 °F 32.6 °F 30.26 in Calm     79.8% 0.00 in 0 W/m2
02:54 37.5 °F 32.8 °F 30.26 in Calm     80% 0.00 in 0 W/m2
02:59 37.5 °F 32.8 °F 30.26 in Calm     80% 0.00 in 0 W/m2
03:04 37.4 °F 32.7 °F 30.26 in Calm     80% 0.00 in 0 W/m2
03:09 37.5 °F 32.8 °F 30.26 in Calm     80% 0.00 in 0 W/m2
03:14 37.6 °F 32.9 °F 30.26 in Calm     80% 0.00 in 0 W/m2
03:19 37.6 °F 32.9 °F 30.26 in Calm     80% 0.00 in 0 W/m2
03:24 37.7 °F 33 °F 30.26 in Calm     80% 0.00 in 0 W/m2
03:29 37.8 °F 33.1 °F 30.26 in Calm     80% 0.00 in 0 W/m2
03:34 37.8 °F 33.1 °F 30.26 in Calm     80% 0.00 in 0 W/m2
03:39 37.8 °F 33.1 °F 30.25 in NNW 0.6 mph 2 mph 80% 0.00 in 0 W/m2
03:44 37.8 °F 33.1 °F 30.25 in NNW 1 mph 3 mph 80% 0.00 in 0 W/m2
03:49 37.8 °F 33.2 °F 30.25 in Calm   1 mph 80% 0.00 in 0 W/m2
03:59 37.8 °F 33.1 °F 30.24 in NNW 0.2 mph 3 mph 80% 0.00 in 0 W/m2
04:04 37.8 °F 33.1 °F 30.24 in Calm     80% 0.00 in 0 W/m2
04:09 37.9 °F 33.3 °F 30.24 in NNW 2.2 mph 3 mph 80% 0.00 in 0 W/m2
04:19 38.3 °F 33.6 °F 30.24 in NNW 2.6 mph 5 mph 80% 0.00 in 0 W/m2
04:24 38.5 °F 33.8 °F 30.24 in NNW 1.1 mph 3 mph 80% 0.00 in 0 W/m2
04:29 38.7 °F 33.7 °F 30.24 in NNW 2.9 mph 5 mph 79.2% 0.00 in 0 W/m2
04:34 38.7 °F 33.6 °F 30.24 in NNW 2.4 mph 4 mph 79% 0.00 in 0 W/m2
04:39 38.7 °F 33.6 °F 30.24 in NNW 2.4 mph 5 mph 79% 0.00 in 0 W/m2
04:44 38.7 °F 33.6 °F 30.24 in NNW 2.5 mph 5 mph 79% 0.00 in 0 W/m2
04:49 38.7 °F 33.7 °F 30.24 in NNW 0.6 mph 4 mph 79% 0.00 in 0 W/m2
04:54 38.8 °F 33.7 °F 30.23 in NNW 0.7 mph 3 mph 79% 0.00 in 0 W/m2
04:59 38.8 °F 33.8 °F 30.24 in NNW 1.2 mph 3 mph 79% 0.00 in 0 W/m2
05:04 38.8 °F 33.8 °F 30.24 in NNW 1.8 mph 3 mph 79% 0.00 in 0 W/m2
05:09 38.8 °F 33.8 °F 30.23 in NNW 0.5 mph 3 mph 79% 0.00 in 0 W/m2
05:14 39 °F 33.9 °F 30.23 in Calm   1 mph 78.8% 0.00 in 0 W/m2
05:19 39 °F 33.9 °F 30.23 in Calm     78.8% 0.00 in 0 W/m2
05:24 39 °F 33.9 °F 30.23 in Calm     78.8% 0.00 in 0 W/m2
05:29 39 °F 33.8 °F 30.23 in NNW 0.8 mph 2 mph 78.4% 0.00 in 0 W/m2
05:34 39 °F 34 °F 30.23 in NNW 0.9 mph 3 mph 79% 0.00 in 0 W/m2
05:39 39 °F 34 °F 30.23 in NNW 0.4 mph 2 mph 79% 0.00 in 0 W/m2
05:44 39 °F 34 °F 30.22 in NNW 0.2 mph 3 mph 79% 0.00 in 0 W/m2
05:49 39 °F 34 °F 30.22 in Calm     79% 0.00 in 0 W/m2
05:54 39 °F 34 °F 30.22 in NNW 1.6 mph 3 mph 79% 0.00 in 0 W/m2
05:59 39 °F 34 °F 30.22 in NNW 2.8 mph 5 mph 79% 0.00 in 0 W/m2
06:04 39.3 °F 34.3 °F 30.22 in NNW 2.1 mph 5 mph 79% 0.00 in 0 W/m2
06:09 39.4 °F 34.3 °F 30.22 in NNW 2.4 mph 4 mph 79% 0.00 in 0 W/m2
06:14 39.4 °F 34.3 °F 30.22 in NNW 3 mph 5 mph 79% 0.00 in 0 W/m2
06:19 39.5 °F 34.4 °F 30.22 in NNW 2.1 mph 5 mph 79% 0.00 in 0 W/m2
06:24 39.6 °F 34.5 °F 30.22 in NNW 3.7 mph 6 mph 79% 0.00 in 0 W/m2
06:29 39.6 °F 34.5 °F 30.22 in NNW 3.7 mph 7 mph 79% 0.00 in 0 W/m2
06:34 39.6 °F 34.5 °F 30.22 in NW 4.6 mph 7 mph 79% 0.00 in 0 W/m2
06:39 39.7 °F 34.7 °F 30.22 in WNW 4.4 mph 8 mph 79% 0.00 in 5 W/m2
06:44 39.7 °F 34.7 °F 30.22 in WNW 4.9 mph 8 mph 79% 0.00 in 5 W/m2
06:49 39.7 °F 34.7 °F 30.22 in WNW 3.8 mph 8 mph 79% 0.00 in 9 W/m2
06:54 39.7 °F 34.7 °F 30.22 in WNW 4.1 mph 8 mph 79% 0.00 in 11 W/m2
06:59 39.7 °F 34.7 °F 30.22 in West 4.8 mph 8 mph 79% 0.00 in 16 W/m2
07:04 39.9 °F 34.9 °F 30.22 in West 3.6 mph 7 mph 79% 0.00 in 16 W/m2
07:09 39.9 °F 34.9 °F 30.22 in West 2.9 mph 8 mph 79% 0.00 in 18 W/m2
07:14 39.9 °F 34.9 °F 30.22 in West 2.9 mph 5 mph 79% 0.00 in 21 W/m2
07:19 39.9 °F 35 °F 30.22 in West 3.6 mph 6 mph 79.4% 0.00 in 23 W/m2
07:24 40.1 °F 35.2 °F 30.22 in West 3.1 mph 6 mph 80% 0.00 in 30 W/m2
07:29 40.3 °F 35.4 °F 30.22 in West 1.2 mph 4 mph 80% 0.00 in 39 W/m2
07:34 40.4 °F 35.5 °F 30.22 in West 1.7 mph 5 mph 80% 0.00 in 44 W/m2
07:39 40.6 °F 35.8 °F 30.22 in West 1.7 mph 3 mph 80% 0.00 in 46 W/m2
07:44 40.9 °F 36 °F 30.22 in West 1.6 mph 4 mph 80% 0.00 in 53 W/m2
07:49 41 °F 35.9 °F 30.22 in West 3 mph 6 mph 79.2% 0.00 in 54 W/m2
07:54 41.1 °F 35.9 °F 30.22 in West 3.9 mph 6 mph 79% 0.00 in 62 W/m2
07:59 41.2 °F 36 °F 30.22 in WSW 4.5 mph 8 mph 79% 0.00 in 74 W/m2
08:04 41.2 °F 36 °F 30.22 in WSW 3.7 mph 9 mph 79% 0.00 in 72 W/m2
08:09 41.2 °F 36 °F 30.22 in WSW 5 mph 9 mph 79% 0.00 in 54 W/m2
08:14 41.3 °F 36.2 °F 30.22 in WSW 3.7 mph 9 mph 79.6% 0.00 in 58 W/m2
08:19 41.4 °F 36.5 °F 30.22 in WSW 5.7 mph 9 mph 80% 0.00 in 62 W/m2
08:24 41.5 °F 36.7 °F 30.22 in WSW 3.7 mph 9 mph 80% 0.00 in 74 W/m2
08:29 41.5 °F 36.7 °F 30.22 in WSW 4.1 mph 9 mph 80% 0.00 in 120 W/m2
08:34 41.5 °F 36.7 °F 30.21 in West 4.5 mph 9 mph 80% 0.00 in 148 W/m2
08:39 41.7 °F 36.9 °F 30.21 in West 3.9 mph 7 mph 80% 0.00 in 160 W/m2
08:44 42.1 °F 37.2 °F 30.21 in WSW 5.8 mph 8 mph 80% 0.00 in 153 W/m2
08:49 42.3 °F 37.4 °F 30.21 in WSW 3.6 mph 10 mph 79.8% 0.00 in 151 W/m2
08:54 42.6 °F 37.4 °F 30.21 in West 2.8 mph 9 mph 79.2% 0.00 in 137 W/m2
08:59 42.8 °F 37.7 °F 30.21 in West 4.2 mph 7 mph 79% 0.00 in 137 W/m2
09:04 43.1 °F 37.8 °F 30.21 in West 5.3 mph 10 mph 79% 0.00 in 176 W/m2
09:09 43.2 °F 37.6 °F 30.21 in West 6.8 mph 13 mph 78% 0.00 in 216 W/m2
09:14 43.3 °F 37.6 °F 30.21 in WSW 8.7 mph 13 mph 77.2% 0.00 in 237 W/m2
09:19 43.5 °F 37.6 °F 30.21 in WSW 5.4 mph 11 mph 77% 0.00 in 255 W/m2
09:24 43.9 °F 37.9 °F 30.21 in West 7.8 mph 12 mph 77% 0.00 in 250 W/m2
09:29 43.9 °F 37.9 °F 30.21 in WSW 6.6 mph 12 mph 76.6% 0.00 in 318 W/m2
09:34 44.2 °F 37.9 °F 30.21 in WSW 6.6 mph 12 mph 76% 0.00 in 301 W/m2
09:39 44.4 °F 38.3 °F 30.21 in SW 4.2 mph 11 mph 76.4% 0.00 in 274 W/m2
09:44 45 °F 38.8 °F 30.21 in SW 5 mph 10 mph 76.4% 0.00 in 197 W/m2
09:49 45 °F 39.1 °F 30.21 in WSW 6.1 mph 11 mph 77% 0.00 in 207 W/m2
09:54 44.8 °F 38.8 °F 30.21 in WSW 6.8 mph 10 mph 77% 0.00 in 264 W/m2
09:59 45 °F 39.2 °F 30.20 in WSW 5.5 mph 9 mph 77.2% 0.00 in 478 W/m2
10:04 45.4 °F 39.5 °F 30.20 in WSW 5.7 mph 11 mph 77% 0.00 in 496 W/m2
10:09 46.1 °F 40 °F 30.20 in WSW 5.8 mph 11 mph 76.6% 0.00 in 512 W/m2
10:14 46.4 °F 40.1 °F 30.20 in WSW 7.7 mph 11 mph 76% 0.00 in 606 W/m2
10:19 46.1 °F 39.9 °F 30.20 in WSW 6.8 mph 12 mph 76.2% 0.00 in 506 W/m2
10:24 46.3 °F 40.2 °F 30.20 in West 5.7 mph 11 mph 76.5% 0.00 in 543 W/m2
10:29 46.9 °F 40.7 °F 30.20 in West 6.2 mph 12 mph 76.4% 0.00 in 548 W/m2
10:34 47.3 °F 41 °F 30.20 in West 7.4 mph 13 mph 76% 0.00 in 596 W/m2
10:39 47.4 °F 41.3 °F 30.20 in SW 4.9 mph 14 mph 76.8% 0.00 in 601 W/m2
10:44 47.4 °F 41.5 °F 30.20 in WSW 7.8 mph 12 mph 77% 0.00 in 728 W/m2
10:49 48.2 °F 42 °F 30.19 in West 5.2 mph 12 mph 76.2% 0.00 in 728 W/m2
10:54 48.8 °F 42.4 °F 30.19 in WSW 7.2 mph 11 mph 75.6% 0.00 in 577 W/m2
10:59 48.7 °F 42.1 °F 30.20 in WSW 6.5 mph 11 mph 75.2% 0.00 in 520 W/m2
11:04 48.5 °F 42.2 °F 30.19 in SW 8.8 mph 13 mph 75.8% 0.00 in 401 W/m2
11:09 48.7 °F 42.1 °F 30.19 in WSW 5.6 mph 12 mph 75.2% 0.00 in 689 W/m2
11:14 49.2 °F 42.5 °F 30.19 in WSW 7.8 mph 13 mph 75% 0.00 in 650 W/m2
11:19 49.7 °F 43.2 °F 30.19 in SW 6.7 mph 11 mph 75.5% 0.00 in 763 W/m2
11:24 49.9 °F 42.9 °F 30.19 in WSW 10.3 mph 14 mph 74% 0.00 in 763 W/m2
11:29 49.6 °F 42.6 °F 30.19 in WSW 7.4 mph 15 mph 74.2% 0.00 in 677 W/m2
11:34 49.7 °F 42.9 °F 30.19 in SW 6.8 mph 13 mph 74.6% 0.00 in 728 W/m2
11:39 50.2 °F 43.1 °F 30.19 in West 6.3 mph 13 mph 73.8% 0.00 in 742 W/m2
11:44 50.7 °F 43.2 °F 30.19 in WSW 6.8 mph 12 mph 72.8% 0.00 in 747 W/m2
11:49 50.7 °F 43.2 °F 30.18 in WSW 6.7 mph 13 mph 72.8% 0.00 in 788 W/m2
11:54 50.6 °F 43.2 °F 30.18 in WSW 8 mph 14 mph 73% 0.00 in 475 W/m2
11:59 50.3 °F 42.8 °F 30.18 in West 7.2 mph 14 mph 72.8% 0.00 in 366 W/m2
12:04 50.2 °F 42.8 °F 30.18 in SW 6.2 mph 13 mph 73% 0.00 in 142 W/m2
12:09 49.6 °F 42.6 °F 30.18 in SW 6.1 mph 11 mph 74% 0.00 in 246 W/m2
12:14 49.7 °F 42.7 °F 30.18 in West 8.4 mph 14 mph 74% 0.00 in 306 W/m2
12:19 49.8 °F 42.6 °F 30.18 in West 8.2 mph 14 mph 73.3% 0.00 in 770 W/m2
12:24 50.3 °F 42.8 °F 30.17 in West 5.4 mph 12 mph 72.8% 0.00 in 385 W/m2
12:29 50.4 °F 42.7 °F 30.17 in West 10.6 mph 18 mph 72% 0.00 in 464 W/m2
12:34 50.3 °F 42.6 °F 30.17 in West 7 mph 16 mph 72.2% 0.00 in 661 W/m2
12:39 51.1 °F 43.1 °F 30.17 in SW 6.1 mph 11 mph 71.8% 0.00 in 661 W/m2
12:44 51 °F 43 °F 30.17 in West 5.2 mph 10 mph 71.6% 0.00 in 487 W/m2
12:49 51.2 °F 43.2 °F 30.17 in SW 7 mph 12 mph 72% 0.00 in 487 W/m2
12:54 50.4 °F 43 °F 30.17 in SW 7.8 mph 14 mph 72.8% 0.00 in 330 W/m2
13:04 51.1 °F 43.5 °F 30.16 in West 5.5 mph 11 mph 73.2% 0.00 in 399 W/m2
13:09 50.9 °F 43.3 °F 30.16 in West 6.7 mph 13 mph 73% 0.00 in 279 W/m2
13:14 50.7 °F 43.2 °F 30.16 in WSW 6.4 mph 14 mph 72.8% 0.00 in 192 W/m2
13:19 50.4 °F 43.1 °F 30.16 in WSW 5 mph 12 mph 73% 0.00 in 227 W/m2
13:24 50.6 °F 43.1 °F 30.16 in West 7.1 mph 11 mph 72.6% 0.00 in 315 W/m2
13:29 50.7 °F 43.1 °F 30.16 in WSW 7.2 mph 11 mph 72.4% 0.00 in 276 W/m2
13:39 50.4 °F 43.1 °F 30.15 in SW 8.6 mph 14 mph 73% 0.00 in 155 W/m2
13:44 50.2 °F 42.8 °F 30.15 in SW 8.2 mph 13 mph 73% 0.00 in 253 W/m2
13:49 50.4 °F 42.9 °F 30.15 in WSW 7.8 mph 13 mph 72.6% 0.00 in 250 W/m2
13:54 50.5 °F 42.4 °F 30.15 in WSW 6.4 mph 13 mph 71.2% 0.00 in 253 W/m2
13:59 50.5 °F 42.4 °F 30.15 in WSW 6.7 mph 12 mph 71% 0.00 in 276 W/m2
14:04 50.7 °F 42.1 °F 30.15 in WNW 7 mph 14 mph 70% 0.00 in 267 W/m2
14:09 50.5 °F 41.4 °F 30.15 in West 6.6 mph 12 mph 68.8% 0.00 in 232 W/m2
14:14 50.4 °F 41 °F 30.15 in WNW 8.3 mph 14 mph 68% 0.00 in 179 W/m2
14:19 50.4 °F 41 °F 30.14 in West 5.6 mph 10 mph 68% 0.00 in 167 W/m2
14:24 50.5 °F 41.2 °F 30.14 in West 6.5 mph 12 mph 68% 0.00 in 151 W/m2
14:29 50.2 °F 41 °F 30.14 in WSW 9 mph 12 mph 68.4% 0.00 in 128 W/m2
14:34 49.9 °F 41 °F 30.14 in West 9.9 mph 14 mph 68.8% 0.00 in 104 W/m2
14:39 49.7 °F 40.5 °F 30.14 in West 3 mph 12 mph 68% 0.00 in 121 W/m2
14:44 49.6 °F 40.6 °F 30.14 in West 7.4 mph 14 mph 68.2% 0.00 in 125 W/m2
14:49 49.5 °F 40.7 °F 30.14 in WNW 5.7 mph 14 mph 69% 0.00 in 93 W/m2
14:54 49.5 °F 40.6 °F 30.14 in West 5.8 mph 10 mph 69% 0.00 in 86 W/m2
14:59 49.5 °F 40.7 °F 30.13 in West 7.9 mph 13 mph 69.4% 0.00 in 81 W/m2
15:04 49.3 °F 40.8 °F 30.13 in West 5 mph 10 mph 70% 0.00 in 91 W/m2
15:09 49.3 °F 40.8 °F 30.13 in West 3.3 mph 10 mph 70% 0.00 in 123 W/m2
15:14 49.3 °F 41 °F 30.13 in West 6 mph 11 mph 70.4% 0.00 in 200 W/m2
15:19 49.5 °F 41.4 °F 30.13 in West 7.4 mph 11 mph 71% 0.00 in 244 W/m2
15:24 49.5 °F 41.7 °F 30.12 in WSW 7.1 mph 10 mph 72% 0.00 in 239 W/m2
15:29 49.5 °F 41.8 °F 30.12 in West 5.2 mph 11 mph 72% 0.00 in 199 W/m2
15:34 49.6 °F 42.3 °F 30.12 in West 7.4 mph 13 mph 73% 0.00 in 137 W/m2
15:39 49.4 °F 42.1 °F 30.12 in West 6.5 mph 13 mph 73.2% 0.00 in 93 W/m2
15:44 49.3 °F 42.3 °F 30.12 in WSW 7.1 mph 13 mph 74% 0.00 in 72 W/m2
15:49 49.2 °F 42.2 °F 30.11 in WSW 8.1 mph 12 mph 74% 0.00 in 67 W/m2
15:54 48.9 °F 42.3 °F 30.11 in West 7.8 mph 12 mph 75% 0.00 in 105 W/m2
15:59 48.7 °F 42.3 °F 30.11 in West 5.6 mph 13 mph 75.8% 0.00 in 113 W/m2
16:04 48.7 °F 42.4 °F 30.11 in West 4.7 mph 10 mph 76% 0.00 in 105 W/m2
16:09 48.6 °F 42.1 °F 30.11 in WNW 7.8 mph 11 mph 75.6% 0.00 in 90 W/m2
16:14 48.6 °F 42.3 °F 30.11 in West 6.2 mph 10 mph 76% 0.00 in 76 W/m2
16:19 48.6 °F 42.2 °F 30.11 in WSW 5.9 mph 8 mph 75.8% 0.00 in 70 W/m2
16:24 48.6 °F 42.3 °F 30.11 in West 6 mph 8 mph 76% 0.00 in 65 W/m2
16:29 48.6 °F 42.3 °F 30.11 in West 6.2 mph 12 mph 76% 0.00 in 76 W/m2
16:33 48.6 °F 42.3 °F 30.11 in West 8.2 mph 13 mph 76.3% 0.00 in 100 W/m2
16:44 48.4 °F 42.4 °F 30.10 in West 5.2 mph 13 mph 77% 0.00 in 56 W/m2
16:49 48.4 °F 42.4 °F 30.10 in West 3.5 mph 8 mph 77% 0.00 in 30 W/m2
16:59 47.9 °F 42 °F 30.10 in West 4.6 mph 12 mph 77% 0.00 in 74 W/m2
17:04 47.8 °F 41.9 °F 30.10 in West 6.4 mph 10 mph 77% 0.00 in 91 W/m2
17:09 47.8 °F 41.9 °F 30.10 in West 6.2 mph 13 mph 77% 0.00 in 93 W/m2
17:14 47.8 °F 41.9 °F 30.10 in West 5.8 mph 13 mph 77% 0.00 in 69 W/m2
17:24 47.8 °F 42.2 °F 30.09 in WNW 6.8 mph 12 mph 78% 0.00 in 84 W/m2
17:29 47.7 °F 42.1 °F 30.09 in West 8 mph 11 mph 78% 0.00 in 79 W/m2
17:34 47.5 °F 41.9 °F 30.09 in West 6.8 mph 14 mph 78% 0.00 in 65 W/m2
17:39 47.3 °F 41.7 °F 30.09 in West 7.2 mph 14 mph 78% 0.00 in 53 W/m2
17:44 47.2 °F 42 °F 30.09 in West 6.4 mph 13 mph 79% 0.00 in 51 W/m2
17:49 47.2 °F 42 °F 30.09 in West 7.8 mph 12 mph 79% 0.00 in 51 W/m2
17:59 46.8 °F 41.8 °F 30.09 in WNW 6.7 mph 11 mph 80% 0.00 in 53 W/m2
18:04 46.8 °F 41.7 °F 30.09 in West 6.3 mph 11 mph 80% 0.00 in 62 W/m2
18:09 46.8 °F 42 °F 30.09 in WSW 5.5 mph 10 mph 80.8% 0.00 in 65 W/m2
18:14 46.8 °F 42.1 °F 30.09 in WSW 6.5 mph 11 mph 81% 0.00 in 72 W/m2
18:19 46.8 °F 42.1 °F 30.09 in WSW 4 mph 11 mph 81% 0.00 in 70 W/m2
18:24 46.8 °F 42.1 °F 30.09 in WSW 5.9 mph 10 mph 81% 0.00 in 47 W/m2
18:29 46.8 °F 42.1 °F 30.09 in WSW 5.3 mph 11 mph 81% 0.00 in 63 W/m2
18:34 46.9 °F 42.3 °F 30.08 in WSW 4.3 mph 11 mph 81% 0.00 in 56 W/m2
18:39 46.9 °F 42.3 °F 30.08 in WSW 7 mph 12 mph 81% 0.00 in 54 W/m2
18:44 46.9 °F 42.3 °F 30.08 in SW 4.8 mph 10 mph 81% 0.00 in 40 W/m2
18:49 47.1 °F 42.4 °F 30.08 in WSW 5.6 mph 9 mph 81% 0.00 in 33 W/m2
18:59 47 °F 42.3 °F 30.07 in WSW 6 mph 13 mph 81% 0.00 in 16 W/m2
19:04 46.9 °F 42.3 °F 30.07 in WSW 7.4 mph 10 mph 81% 0.00 in 19 W/m2
19:09 46.9 °F 42.3 °F 30.07 in West 5.2 mph 10 mph 81% 0.00 in 19 W/m2
19:19 47.1 °F 42.5 °F 30.07 in WSW 4.6 mph 8 mph 81.4% 0.00 in 18 W/m2
19:24 46.9 °F 42.6 °F 30.07 in West 4.6 mph 10 mph 82% 0.00 in 12 W/m2
19:29 46.9 °F 42.6 °F 30.06 in West 5.7 mph 8 mph 82% 0.00 in 11 W/m2
19:34 46.9 °F 42.6 °F 30.06 in West 3.3 mph 8 mph 82% 0.00 in 11 W/m2
19:39 46.9 °F 42.6 °F 30.06 in West 4.7 mph 7 mph 82% 0.00 in 5 W/m2
19:44 46.8 °F 42.4 °F 30.06 in West 6.2 mph 8 mph 82% 0.00 in 0 W/m2
19:49 46.6 °F 42.3 °F 30.06 in West 7.4 mph 11 mph 82% 0.00 in 0 W/m2
19:54 46.6 °F 42.3 °F 30.06 in WNW 6.2 mph 12 mph 82% 0.00 in 0 W/m2
20:04 46.2 °F 41.9 °F 30.06 in WNW 8.2 mph 11 mph 82% 0.00 in 0 W/m2
20:09 46 °F 41.7 °F 30.06 in West 5.9 mph 10 mph 82% 0.00 in 0 W/m2
20:14 46 °F 41.7 °F 30.06 in West 4.5 mph 8 mph 82% 0.00 in 0 W/m2
20:19 46 °F 41.7 °F 30.06 in West 4.2 mph 8 mph 82% 0.00 in 0 W/m2
20:24 46 °F 41.7 °F 30.06 in West 5 mph 11 mph 82% 0.00 in 0 W/m2
20:29 46 °F 41.7 °F 30.06 in West 4.4 mph 11 mph 82% 0.00 in 0 W/m2
20:34 46 °F 41.7 °F 30.06 in West 2.8 mph 8 mph 82% 0.00 in 0 W/m2
20:44 45.9 °F 41.6 °F 30.05 in West 3.2 mph 7 mph 82% 0.00 in 0 W/m2
20:49 45.9 °F 41.5 °F 30.06 in West 4 mph 9 mph 82% 0.00 in 0 W/m2
20:54 45.9 °F 41.5 °F 30.06 in West 4.1 mph 9 mph 82% 0.00 in 0 W/m2
20:59 45.9 °F 41.5 °F 30.06 in West 4.3 mph 7 mph 82% 0.00 in 0 W/m2
21:04 45.9 °F 41.5 °F 30.06 in West 4 mph 7 mph 82% 0.00 in 0 W/m2
21:09 45.9 °F 41.5 °F 30.06 in West 3.2 mph 7 mph 82% 0.00 in 0 W/m2
21:14 45.9 °F 41.5 °F 30.06 in West 4.7 mph 7 mph 82% 0.00 in 0 W/m2
21:19 45.7 °F 41.4 °F 30.06 in West 3 mph 8 mph 82% 0.00 in 0 W/m2
21:24 45.7 °F 41.4 °F 30.06 in West 4.4 mph 6 mph 82% 0.00 in 0 W/m2
21:29 45.7 °F 41.4 °F 30.05 in West 3.2 mph 7 mph 82% 0.00 in 0 W/m2
21:34 45.7 °F 41.4 °F 30.05 in West 3.3 mph 6 mph 82% 0.00 in 0 W/m2
21:39 45.7 °F 41.4 °F 30.05 in West 3.6 mph 6 mph 82% 0.00 in 0 W/m2
21:44 45.6 °F 41.3 °F 30.05 in West 3.7 mph 6 mph 82% 0.00 in 0 W/m2
21:49 45.5 °F 41.2 °F 30.05 in West 2.8 mph 7 mph 82% 0.00 in 0 W/m2
21:54 45.3 °F 41 °F 30.05 in West 2.8 mph 6 mph 82% 0.00 in 0 W/m2
21:59 45.3 °F 41 °F 30.04 in West 2.8 mph 6 mph 82% 0.00 in 0 W/m2
22:04 45.3 °F 41 °F 30.04 in West 4.2 mph 7 mph 82% 0.00 in 0 W/m2
22:09 45.3 °F 41 °F 30.04 in West 3.1 mph 6 mph 82% 0.00 in 0 W/m2
22:14 45.3 °F 41 °F 30.04 in West 3.7 mph 6 mph 82% 0.00 in 0 W/m2
22:19 45.3 °F 41.1 °F 30.04 in West 3.8 mph 9 mph 82.2% 0.00 in 0 W/m2
22:24 45.5 °F 41.3 °F 30.04 in West 6.8 mph 14 mph 82.4% 0.00 in 0 W/m2
22:29 45.6 °F 41.3 °F 30.04 in West 4.7 mph 10 mph 82% 0.00 in 0 W/m2
22:34 45.4 °F 40.7 °F 30.04 in West 4.1 mph 7 mph 81% 0.00 in 0 W/m2
22:39 45.3 °F 40.5 °F 30.03 in WSW 4.8 mph 8 mph 80.4% 0.00 in 0 W/m2
22:44 45.2 °F 40.4 °F 30.03 in WSW 4 mph 7 mph 80% 0.00 in 0 W/m2
22:49 45.1 °F 40.1 °F 30.03 in WSW 4.8 mph 9 mph 79.4% 0.00 in 0 W/m2
22:54 45.1 °F 39.9 °F 30.03 in West 4 mph 10 mph 79% 0.00 in 0 W/m2
22:59 45.1 °F 39.9 °F 30.03 in West 3.3 mph 6 mph 79% 0.00 in 0 W/m2
23:04 45 °F 39.8 °F 30.03 in West 4.6 mph 8 mph 79% 0.00 in 0 W/m2
23:09 45 °F 39.7 °F 30.03 in West 4.1 mph 8 mph 79% 0.00 in 0 W/m2
23:19 44.8 °F 39.7 °F 30.02 in WSW 5 mph 8 mph 79.2% 0.00 in 0 W/m2
23:24 44.8 °F 39.9 °F 30.02 in WSW 3.2 mph 8 mph 80% 0.00 in 0 W/m2
23:29 44.7 °F 39.8 °F 30.02 in WSW 2.9 mph 6 mph 80% 0.00 in 0 W/m2
23:34 44.5 °F 39.6 °F 30.02 in WSW 3 mph 6 mph 80% 0.00 in 0 W/m2
23:39 44.4 °F 39.6 °F 30.02 in WSW 3.3 mph 6 mph 80% 0.00 in 0 W/m2
23:44 44.2 °F 39.4 °F 30.01 in WSW 3.4 mph 6 mph 80% 0.00 in 0 W/m2
23:49 44.2 °F 39.4 °F 30.01 in WSW 3 mph 6 mph 80% 0.00 in 0 W/m2
23:54 44.2 °F 39.4 °F 30.01 in WSW 2.5 mph 5 mph 80% 0.00 in 0 W/m2
23:59 44.1 °F 39.5 °F 30.01 in WSW 2.2 mph 4 mph 80.8% 0.00 in 0 W/m2
Bath Spa Weather
Compliments of Weather Underground - 2 mb